createdAt,value
2022-10-22T00:09:53.166Z,10.79
2022-10-22T00:14:57.399Z,10.87
2022-10-22T00:20:00.272Z,10.78
2022-10-22T00:25:03.197Z,10.88
2022-10-22T00:30:08.774Z,10.85
2022-10-22T00:35:11.676Z,10.84
2022-10-22T00:40:14.562Z,10.81
2022-10-22T00:45:24.820Z,10.77
2022-10-22T00:50:31.100Z,10.71
2022-10-22T00:55:34.487Z,10.66
2022-10-22T01:00:38.870Z,10.63
2022-10-22T01:05:45.345Z,10.78
2022-10-22T01:11:00.185Z,10.82
2022-10-22T01:16:12.264Z,10.70
2022-10-22T01:21:27.824Z,10.33
2022-10-22T01:26:41.847Z,10.47
2022-10-22T01:31:49.539Z,10.36
2022-10-22T01:36:54.459Z,10.30
2022-10-22T01:41:58.280Z,10.43
2022-10-22T01:47:18.179Z,10.51
2022-10-22T01:52:31.681Z,10.58
2022-10-22T01:57:44.297Z,10.64
2022-10-22T02:02:54.895Z,10.67
2022-10-22T02:08:07.715Z,10.66
2022-10-22T02:13:15.080Z,10.59
2022-10-22T02:18:23.581Z,10.60
2022-10-22T02:23:27.406Z,10.49
2022-10-22T02:28:37.339Z,10.61
2022-10-22T02:33:46.475Z,10.63
2022-10-22T02:38:52.071Z,10.59
2022-10-22T02:43:56.452Z,10.58
2022-10-22T02:49:00.701Z,10.41
2022-10-22T02:54:03.579Z,10.58
2022-10-22T02:59:06.608Z,10.40
2022-10-22T03:04:10.872Z,10.42
2022-10-22T03:09:13.772Z,10.35
2022-10-22T03:14:16.667Z,10.31
2022-10-22T03:19:20.908Z,10.37
2022-10-22T03:24:28.531Z,10.50
2022-10-22T03:29:34.685Z,10.46
2022-10-22T03:34:38.935Z,10.10
2022-10-22T03:39:42.311Z,10.11
2022-10-22T03:44:45.302Z,10.19
2022-10-22T03:49:49.530Z,10.44
2022-10-22T03:54:52.551Z,10.43
2022-10-22T03:59:55.457Z,10.49
2022-10-22T04:04:59.741Z,10.55
2022-10-22T04:10:02.752Z,10.43
2022-10-22T04:15:06.170Z,10.46
2022-10-22T04:20:12.367Z,10.49
2022-10-22T04:25:15.278Z,10.31
2022-10-22T04:30:18.319Z,10.35
2022-10-22T04:35:22.623Z,10.20
2022-10-22T04:40:25.558Z,10.10
2022-10-22T04:45:28.487Z,10.19
2022-10-22T04:50:32.755Z,10.21
2022-10-22T04:55:35.714Z,10.01
2022-10-22T05:00:38.688Z,10.00
2022-10-22T05:05:42.985Z,10.03
2022-10-22T05:10:45.883Z,9.89
2022-10-22T05:15:48.775Z,9.95
2022-10-22T05:20:53.171Z,10.02
2022-10-22T05:25:56.381Z,10.09
2022-10-22T05:31:01.254Z,9.97
2022-10-22T05:36:08.485Z,10.07
2022-10-22T05:41:13.345Z,9.90
2022-10-22T05:46:22.488Z,10.05
2022-10-22T05:51:28.875Z,10.07
2022-10-22T05:56:32.955Z,9.99
2022-10-22T06:01:36.450Z,10.02
2022-10-22T06:06:44.498Z,10.15
2022-10-22T06:11:48.190Z,10.15
2022-10-22T06:16:51.450Z,10.15
2022-10-22T06:21:55.719Z,10.32
2022-10-22T06:26:58.616Z,10.26
2022-10-22T06:32:01.513Z,10.37
2022-10-22T06:37:05.783Z,10.47
2022-10-22T06:42:08.691Z,10.46
2022-10-22T06:47:11.928Z,10.19
2022-10-22T06:52:16.188Z,10.08
2022-10-22T06:57:19.109Z,10.33
2022-10-22T07:02:21.984Z,10.43
2022-10-22T07:07:26.245Z,10.64
2022-10-22T07:12:29.147Z,10.61
2022-10-22T07:17:32.097Z,10.67
2022-10-22T07:22:36.361Z,10.62
2022-10-22T07:27:39.552Z,10.69
2022-10-22T07:32:42.640Z,10.56
2022-10-22T07:37:46.901Z,10.51
2022-10-22T07:42:49.824Z,10.23
2022-10-22T07:47:52.723Z,10.91
2022-10-22T07:52:58.238Z,11.36
2022-10-22T07:58:01.508Z,11.42
2022-10-22T08:03:04.531Z,11.71
2022-10-22T08:08:08.809Z,11.78
2022-10-22T08:13:12.323Z,11.77
2022-10-22T08:18:15.319Z,11.75
2022-10-22T08:23:22.089Z,11.87
2022-10-22T08:28:29.755Z,11.94
2022-10-22T08:33:32.866Z,11.98
2022-10-22T08:38:37.204Z,12.05
2022-10-22T08:44:03.100Z,12.12
2022-10-22T08:49:10.738Z,12.12
2022-10-22T08:54:26.079Z,12.26
2022-10-22T08:59:38.807Z,12.27
2022-10-22T09:04:48.910Z,12.34
2022-10-22T09:09:56.784Z,12.42
2022-10-22T09:14:59.797Z,12.55
2022-10-22T09:20:10.444Z,12.69
2022-10-22T09:25:22.669Z,12.90
2022-10-22T09:30:28.492Z,13.12
2022-10-22T09:35:35.591Z,13.50
2022-10-22T09:40:46.715Z,13.86
2022-10-22T09:45:56.299Z,14.09
2022-10-22T09:51:06.251Z,14.13
2022-10-22T09:56:18.360Z,14.14
2022-10-22T10:01:27.143Z,14.30
2022-10-22T10:06:33.716Z,14.51
2022-10-22T10:11:44.509Z,15.22
2022-10-22T10:16:59.463Z,15.44
2022-10-22T10:22:11.460Z,15.70
2022-10-22T10:27:25.376Z,16.24
2022-10-22T10:32:42.144Z,16.20
2022-10-22T10:37:52.592Z,16.05
2022-10-22T10:43:03.641Z,15.82
2022-10-22T10:48:24.861Z,15.93
2022-10-22T10:53:42.799Z,16.19
2022-10-22T10:58:55.336Z,16.09
2022-10-22T11:04:22.197Z,16.27
2022-10-22T11:09:28.473Z,16.08
2022-10-22T11:14:40.143Z,15.58
2022-10-22T11:19:52.985Z,15.38
2022-10-22T11:25:04.617Z,15.08
2022-10-22T11:30:15.221Z,14.96
2022-10-22T11:35:25.687Z,14.99
2022-10-22T11:40:35.842Z,15.16
2022-10-22T11:45:42.034Z,15.52
2022-10-22T11:50:47.981Z,15.81
2022-10-22T11:55:53.115Z,15.69
2022-10-22T12:00:58.739Z,15.62
2022-10-22T12:06:19.805Z,15.90
2022-10-22T12:11:25.287Z,16.02
2022-10-22T12:16:56.245Z,15.84
2022-10-22T12:22:07.400Z,15.94
2022-10-22T12:27:22.502Z,15.98
2022-10-22T12:32:34.909Z,16.07
2022-10-22T12:37:39.120Z,16.06
2022-10-22T12:42:48.851Z,16.02
2022-10-22T12:47:57.799Z,16.20
2022-10-22T12:53:01.312Z,16.41
2022-10-22T12:58:07.047Z,16.53
2022-10-22T13:03:26.462Z,16.39
2022-10-22T13:08:30.086Z,16.52
2022-10-22T13:13:35.574Z,16.37
2022-10-22T13:18:39.839Z,16.35
2022-10-22T13:23:54.172Z,16.29
2022-10-22T13:29:01.141Z,16.42
2022-10-22T13:34:11.785Z,16.47
2022-10-22T13:39:19.614Z,16.67
2022-10-22T13:44:22.532Z,16.49
2022-10-22T13:49:26.831Z,16.52
2022-10-22T13:54:29.742Z,16.24
2022-10-22T13:59:32.779Z,16.29
2022-10-22T14:04:40.279Z,16.45
2022-10-22T14:09:43.860Z,16.22
2022-10-22T14:14:46.951Z,15.93
2022-10-22T14:19:51.492Z,16.06
2022-10-22T14:24:54.457Z,16.20
2022-10-22T14:29:59.612Z,16.28
2022-10-22T14:35:04.163Z,16.02
2022-10-22T14:40:08.883Z,16.06
2022-10-22T14:45:16.821Z,16.05
2022-10-22T14:50:21.221Z,15.93
2022-10-22T14:55:26.195Z,15.76
2022-10-22T15:00:29.147Z,15.79
2022-10-22T15:05:33.474Z,15.76
2022-10-22T15:10:36.425Z,15.64
2022-10-22T15:15:41.536Z,15.68
2022-10-22T15:20:46.334Z,15.55
2022-10-22T15:25:49.352Z,15.39
2022-10-22T15:30:56.479Z,15.37
2022-10-22T15:36:11.183Z,15.24
2022-10-22T15:41:14.348Z,15.18
2022-10-22T15:46:19.607Z,14.99
2022-10-22T15:51:23.863Z,14.80
2022-10-22T15:56:28.373Z,14.55
2022-10-22T16:01:33.332Z,14.41
2022-10-22T16:06:40.427Z,14.18
2022-10-22T16:11:43.862Z,14.01
2022-10-22T16:16:48.740Z,13.61
2022-10-22T16:21:54.723Z,13.71
2022-10-22T16:26:57.640Z,13.73
2022-10-22T16:32:00.554Z,13.72
2022-10-22T16:37:10.143Z,13.26
2022-10-22T16:42:13.367Z,13.26
2022-10-22T16:47:16.367Z,13.17
2022-10-22T16:52:20.877Z,13.30
2022-10-22T16:57:23.890Z,13.21
2022-10-22T17:02:26.933Z,13.25
2022-10-22T17:07:31.190Z,13.37
2022-10-22T17:12:35.459Z,13.49
2022-10-22T17:17:38.974Z,13.65
2022-10-22T17:22:43.989Z,13.49
2022-10-22T17:27:47.051Z,13.48
2022-10-22T17:32:50.110Z,13.27
2022-10-22T17:37:54.364Z,13.28
2022-10-22T17:42:57.831Z,13.19
2022-10-22T17:48:00.759Z,13.37
2022-10-22T17:53:05.015Z,13.11
2022-10-22T17:58:07.923Z,13.01
2022-10-22T18:03:12.093Z,12.94
2022-10-22T18:08:16.428Z,12.95
2022-10-22T18:13:20.918Z,12.91
2022-10-22T18:18:24.422Z,12.87
2022-10-22T18:23:29.270Z,12.85
2022-10-22T18:28:32.632Z,12.73
2022-10-22T18:33:36.688Z,12.69
2022-10-22T18:38:41.254Z,12.56
2022-10-22T18:43:44.223Z,12.47
2022-10-22T18:48:47.905Z,12.43
2022-10-22T18:54:11.313Z,12.39
2022-10-22T18:59:20.681Z,12.39
2022-10-22T19:04:23.577Z,12.17
2022-10-22T19:09:27.924Z,12.15
2022-10-22T19:14:30.878Z,12.11
2022-10-22T19:19:33.795Z,11.95
2022-10-22T19:24:38.163Z,12.13
2022-10-22T19:29:41.153Z,12.22
2022-10-22T19:34:44.499Z,12.20
2022-10-22T19:39:50.090Z,12.16
2022-10-22T19:44:53.096Z,12.26
2022-10-22T19:49:56.153Z,12.32
2022-10-22T19:55:00.462Z,12.34
2022-10-22T20:00:03.407Z,12.51
2022-10-22T20:05:26.286Z,12.54
2022-10-22T20:10:30.628Z,12.51
2022-10-22T20:15:34.115Z,12.57
2022-10-22T20:20:39.328Z,12.55
2022-10-22T20:25:44.805Z,12.56
2022-10-22T20:30:47.949Z,12.38
2022-10-22T20:35:59.960Z,12.47
2022-10-22T20:41:07.183Z,12.25
2022-10-22T20:46:17.441Z,12.28
2022-10-22T20:51:20.603Z,12.18
2022-10-22T20:56:25.576Z,12.06
2022-10-22T21:01:28.532Z,12.20
2022-10-22T21:06:31.530Z,12.07
2022-10-22T21:11:36.550Z,11.92
2022-10-22T21:16:41.788Z,11.80
2022-10-22T21:21:44.692Z,11.72
2022-10-22T21:26:48.945Z,11.58
2022-10-22T21:31:53.159Z,11.58
2022-10-22T21:36:56.175Z,11.79
2022-10-22T21:42:00.457Z,11.58
2022-10-22T21:47:03.669Z,11.60
2022-10-22T21:52:07.082Z,11.51
2022-10-22T21:57:11.346Z,11.58
2022-10-22T22:02:14.335Z,11.54
2022-10-22T22:07:17.291Z,11.29
2022-10-22T22:12:21.622Z,11.30
2022-10-22T22:17:24.601Z,11.28
2022-10-22T22:22:27.975Z,11.31
2022-10-22T22:27:32.217Z,11.20
2022-10-22T22:32:35.165Z,11.16
2022-10-22T22:37:38.179Z,11.24
2022-10-22T22:42:42.463Z,11.23
2022-10-22T22:47:45.371Z,11.25
2022-10-22T22:52:48.355Z,11.33
2022-10-22T22:57:52.654Z,11.14
2022-10-22T23:02:56.442Z,11.00
2022-10-22T23:07:59.347Z,10.78
2022-10-22T23:13:03.683Z,10.70
2022-10-22T23:18:06.678Z,10.68
2022-10-22T23:23:09.605Z,10.46
2022-10-22T23:28:13.863Z,10.35
2022-10-22T23:33:19.343Z,10.49
2022-10-22T23:38:22.249Z,10.75
2022-10-22T23:43:27.336Z,10.94
2022-10-22T23:48:30.291Z,10.86
2022-10-22T23:53:33.243Z,10.83
2022-10-22T23:58:38.248Z,10.74
